M S San Francisco — WZC3886 — position and weather

sailwx.info

Track history (hours):
 
Tides and Currents Weather Stations Pressure Air Temp Water Temp Dewpoint Dewpoint Depression Visibility Wind Speed Wind Dir Waves Ship Positions

M S San Francisco

Owner: GOLDEN GATE BRIDGE HWY & TRANSP DISTRICT, LARKSPUR, CA. More information available from US FCC via Universal Licensing System and Coast Guard Vessel Documentation Center.

Last reported at 2016-Nov-30 03:33 UTC. Time now 2016-Dec-08 18:10 UTC.
Position N 37°57' W 122°31'.
Warning: this ship's position is 8 days out of date.

Length 58 m.

Type: Passenger vessel. MMSI: 366963980.

Date/timePositionNaut miles runAvg speedWind from/ knotsBaromVisibWave heightAir tempDewpointWater temp
2016-Nov-30 03:33N 37°57' W 122°31'6 5.5
2016-Nov-30 02:33N 37°51' W 122°29'5 5.5
2016-Nov-30 01:34N 37°48' W 122°23'5 5.4
2016-Nov-30 00:34N 37°51' W 122°29'2 1.6
2016-Nov-29 23:33N 37°51' W 122°27'4 4.0
2016-Nov-29 22:34N 37°48' W 122°24'5 5.4
2016-Nov-29 21:33N 37°51' W 122°29'4 3.6
2016-Nov-29 20:33N 37°50' W 122°25'2 2.0
2016-Nov-29 19:33N 37°48' W 122°24'5 5.4
2016-Nov-29 18:34N 37°51' W 122°29'5 5.4
2016-Nov-29 17:33N 37°48' W 122°24'3 2.6
2016-Nov-29 16:33N 37°50' W 122°25'3 2.5
2016-Nov-29 15:33N 37°48' W 122°23'10 9.6
2016-Nov-29 14:33N 37°56' W 122°29'1 0.0
2016-Nov-28 04:22N 37°57' W 122°31'911.5
2016-Nov-28 03:33N 37°49' W 122°24'5 4.6
2016-Nov-28 02:33N 37°51' W 122°29'5 5.4
2016-Nov-28 01:33N 37°48' W 122°24'1010.2
2016-Nov-28 00:33N 37°57' W 122°30'1010.3
2016-Nov-27 23:33N 37°48' W 122°24'0 0.0
2016-Nov-27 22:33N 37°48' W 122°24'1010.5
2016-Nov-27 21:33N 37°57' W 122°30'1010.5
2016-Nov-27 20:33N 37°48' W 122°24'10 9.9
2016-Nov-27 19:30N 37°57' W 122°30'0 0.0
2016-Nov-27 03:20N 37°57' W 122°30'1012.5
2016-Nov-27 02:34N 37°49' W 122°23'5 4.9
2016-Nov-27 01:34N 37°51' W 122°29'5 5.4
2016-Nov-27 00:34N 37°48' W 122°24'5 5.4
2016-Nov-26 23:33N 37°51' W 122°29'4 4.0
2016-Nov-26 22:33N 37°49' W 122°24'1 0.8
2016-Nov-26 21:33N 37°49' W 122°24'5 4.7
2016-Nov-26 20:33N 37°51' W 122°29'3 2.9
2016-Nov-26 19:34N 37°50' W 122°26'3 2.6
2016-Nov-26 18:33N 37°48' W 122°24'1010.4
2016-Nov-26 17:33N 37°57' W 122°30'0 0.0
2016-Nov-26 04:27N 37°57' W 122°30'1011.7
2016-Nov-26 03:34N 37°48' W 122°23'5 5.4
2016-Nov-26 02:34N 37°51' W 122°29'4 3.7
2016-Nov-26 01:33N 37°50' W 122°25'2 2.1
2016-Nov-26 00:34N 37°51' W 122°27'2 1.7
2016-Nov-25 23:33N 37°51' W 122°29'5 5.4
2016-Nov-25 22:34N 37°48' W 122°24'1010.3
2016-Nov-25 21:33N 37°57' W 122°30'1010.6
2016-Nov-25 20:33N 37°48' W 122°24'1010.2
2016-Nov-25 19:32N 37°57' W 122°30'0 0.0
2016-Nov-25 18:30N 37°57' W 122°30'0 0.0
2016-Nov-25 17:31N 37°57' W 122°30'0 0.0
2016-Nov-25 16:33N 37°57' W 122°30'0 0.0
2016-Nov-25 15:33N 37°57' W 122°30'0 0.0
2016-Nov-25 14:34N 37°57' W 122°30'0 0.0
2016-Nov-25 13:33N 37°57' W 122°30'0 0.0
2016-Nov-25 12:33N 37°57' W 122°30'0 0.0
2016-Nov-25 11:34N 37°57' W 122°30'0 0.0
2016-Nov-25 10:34N 37°57' W 122°30'0 0.0
2016-Nov-25 09:33N 37°57' W 122°30'0 0.0
2016-Nov-25 08:34N 37°57' W 122°30'0 0.0
2016-Nov-25 07:34N 37°57' W 122°30'0 0.0
2016-Nov-25 06:33N 37°57' W 122°30'0 0.0
2016-Nov-25 05:33N 37°57' W 122°30'0 0.0
2016-Nov-25 04:32N 37°57' W 122°30'0 0.0
2016-Nov-25 03:33N 37°57' W 122°30'0 0.0
2016-Nov-25 02:33N 37°57' W 122°30'0 0.0
2016-Nov-25 01:33N 37°57' W 122°30'0 0.0
2016-Nov-25 00:33N 37°57' W 122°30'0 0.0
2016-Nov-24 23:33N 37°57' W 122°30'0 0.0
2016-Nov-24 22:33N 37°57' W 122°30'0 0.0
2016-Nov-24 21:28N 37°57' W 122°30'0 0.0
2016-Nov-24 20:33N 37°57' W 122°30'0 0.0
2016-Nov-24 19:16N 37°57' W 122°30'0 0.0
2016-Nov-24 18:16N 37°57' W 122°30'0 0.0
2016-Nov-24 17:28N 37°57' W 122°30'0 0.0
2016-Nov-24 16:33N 37°57' W 122°30'0 0.0
2016-Nov-24 15:33N 37°57' W 122°30'0 0.0
2016-Nov-24 14:32N 37°57' W 122°30'0 0.0
2016-Nov-24 13:33N 37°57' W 122°30'0 0.0
2016-Nov-24 12:33N 37°57' W 122°30'0 0.0
2016-Nov-24 11:33N 37°57' W 122°30'0 0.0
2016-Nov-24 10:33N 37°57' W 122°30'0 0.0
2016-Nov-24 09:33N 37°57' W 122°30'0 0.0
2016-Nov-24 08:33N 37°57' W 122°30'0 0.0
2016-Nov-24 07:33N 37°57' W 122°30'0 0.0
2016-Nov-24 06:33N 37°57' W 122°30'0 0.0
2016-Nov-24 05:33N 37°57' W 122°30'6 5.6
2016-Nov-24 04:34N 37°51' W 122°29'2 1.5
2016-Nov-24 03:34N 37°51' W 122°27'3 3.1
2016-Nov-24 02:33N 37°49' W 122°24'1 1.3
2016-Nov-24 01:34N 37°48' W 122°24'5 5.4
2016-Nov-24 00:33N 37°51' W 122°29'3 2.7
2016-Nov-23 23:33N 37°50' W 122°26'3 2.8
2016-Nov-23 22:33N 37°48' W 122°24'5 5.4
2016-Nov-23 21:33N 37°51' W 122°29'4 3.9
2016-Nov-23 20:33N 37°49' W 122°24'2 1.8
2016-Nov-23 19:33N 37°48' W 122°24'5 5.4
2016-Nov-23 18:33N 37°51' W 122°29'5 5.4
2016-Nov-23 17:33N 37°48' W 122°24'3 2.7
2016-Nov-23 16:33N 37°50' W 122°25'3 2.7
2016-Nov-23 15:33N 37°48' W 122°23'10 9.4
2016-Nov-23 14:33N 37°56' W 122°29'6 0.5
2016-Nov-23 03:34N 37°51' W 122°27'4 3.9
2016-Nov-23 02:34N 37°48' W 122°23'5 2.6
2016-Nov-23 00:33N 37°51' W 122°29'3 2.8
2016-Nov-22 23:34N 37°50' W 122°25'3 3.0
2016-Nov-22 22:33N 37°48' W 122°24'2 0.8
2016-Nov-22 20:33N 37°49' W 122°24'2 1.6
2016-Nov-22 19:33N 37°48' W 122°24'0 0.0
2016-Nov-22 17:33N 37°48' W 122°24'3 2.7
2016-Nov-22 16:33N 37°50' W 122°25'3 2.6
2016-Nov-22 15:33N 37°48' W 122°23'10 9.5
2016-Nov-22 14:33N 37°56' W 122°30'9 0.2
2016-Nov-21 02:33N 37°49' W 122°23'1 0.5
2016-Nov-21 00:33N 37°48' W 122°24'0 0.2
2016-Nov-20 22:34N 37°48' W 122°23'1 0.8
2016-Nov-20 21:33N 37°49' W 122°23'10 2.4
2016-Nov-20 17:33N 37°57' W 122°30'0 0.0
2016-Nov-20 04:20N 37°57' W 122°30'1012.5
2016-Nov-20 03:34N 37°49' W 122°23'  
Track history (hours):
 
Tides and Currents Weather Stations Pressure Air Temp Water Temp Dewpoint Dewpoint Depression Visibility Wind Speed Wind Dir Waves Ship Positions

M S San Francisco

Owner: GOLDEN GATE BRIDGE HWY & TRANSP DISTRICT, LARKSPUR, CA. More information available from US FCC via Universal Licensing System and Coast Guard Vessel Documentation Center.

Last reported at 2016-Nov-30 03:33 UTC. Time now 2016-Dec-08 18:10 UTC.
Position N 37°57' W 122°31'.
Warning: this ship's position is 8 days out of date.

Length 58 m.

Type: Passenger vessel. MMSI: 366963980.

Date/timePositionNaut miles runAvg speedWind from/ knotsBaromVisibWave heightAir tempDewpointWater temp
2016-Nov-30 03:33N 37°57' W 122°31'6 5.5
2016-Nov-30 02:33N 37°51' W 122°29'5 5.5
2016-Nov-30 01:34N 37°48' W 122°23'5 5.4
2016-Nov-30 00:34N 37°51' W 122°29'2 1.6
2016-Nov-29 23:33N 37°51' W 122°27'4 4.0
2016-Nov-29 22:34N 37°48' W 122°24'5 5.4
2016-Nov-29 21:33N 37°51' W 122°29'4 3.6
2016-Nov-29 20:33N 37°50' W 122°25'2 2.0
2016-Nov-29 19:33N 37°48' W 122°24'5 5.4
2016-Nov-29 18:34N 37°51' W 122°29'5 5.4
2016-Nov-29 17:33N 37°48' W 122°24'3 2.6
2016-Nov-29 16:33N 37°50' W 122°25'3 2.5
2016-Nov-29 15:33N 37°48' W 122°23'10 9.6
2016-Nov-29 14:33N 37°56' W 122°29'1 0.0
2016-Nov-28 04:22N 37°57' W 122°31'911.5
2016-Nov-28 03:33N 37°49' W 122°24'5 4.6
2016-Nov-28 02:33N 37°51' W 122°29'5 5.4
2016-Nov-28 01:33N 37°48' W 122°24'1010.2
2016-Nov-28 00:33N 37°57' W 122°30'1010.3
2016-Nov-27 23:33N 37°48' W 122°24'0 0.0
2016-Nov-27 22:33N 37°48' W 122°24'1010.5
2016-Nov-27 21:33N 37°57' W 122°30'1010.5
2016-Nov-27 20:33N 37°48' W 122°24'10 9.9
2016-Nov-27 19:30N 37°57' W 122°30'0 0.0
2016-Nov-27 03:20N 37°57' W 122°30'1012.5
2016-Nov-27 02:34N 37°49' W 122°23'5 4.9
2016-Nov-27 01:34N 37°51' W 122°29'5 5.4
2016-Nov-27 00:34N 37°48' W 122°24'5 5.4
2016-Nov-26 23:33N 37°51' W 122°29'4 4.0
2016-Nov-26 22:33N 37°49' W 122°24'1 0.8
2016-Nov-26 21:33N 37°49' W 122°24'5 4.7
2016-Nov-26 20:33N 37°51' W 122°29'3 2.9
2016-Nov-26 19:34N 37°50' W 122°26'3 2.6
2016-Nov-26 18:33N 37°48' W 122°24'1010.4
2016-Nov-26 17:33N 37°57' W 122°30'0 0.0
2016-Nov-26 04:27N 37°57' W 122°30'1011.7
2016-Nov-26 03:34N 37°48' W 122°23'5 5.4
2016-Nov-26 02:34N 37°51' W 122°29'4 3.7
2016-Nov-26 01:33N 37°50' W 122°25'2 2.1
2016-Nov-26 00:34N 37°51' W 122°27'2 1.7
2016-Nov-25 23:33N 37°51' W 122°29'5 5.4
2016-Nov-25 22:34N 37°48' W 122°24'1010.3
2016-Nov-25 21:33N 37°57' W 122°30'1010.6
2016-Nov-25 20:33N 37°48' W 122°24'1010.2
2016-Nov-25 19:32N 37°57' W 122°30'0 0.0
2016-Nov-25 18:30N 37°57' W 122°30'0 0.0
2016-Nov-25 17:31N 37°57' W 122°30'0 0.0
2016-Nov-25 16:33N 37°57' W 122°30'0 0.0
2016-Nov-25 15:33N 37°57' W 122°30'0 0.0
2016-Nov-25 14:34N 37°57' W 122°30'0 0.0
2016-Nov-25 13:33N 37°57' W 122°30'0 0.0
2016-Nov-25 12:33N 37°57' W 122°30'0 0.0
2016-Nov-25 11:34N 37°57' W 122°30'0 0.0
2016-Nov-25 10:34N 37°57' W 122°30'0 0.0
2016-Nov-25 09:33N 37°57' W 122°30'0 0.0
2016-Nov-25 08:34N 37°57' W 122°30'0 0.0
2016-Nov-25 07:34N 37°57' W 122°30'0 0.0
2016-Nov-25 06:33N 37°57' W 122°30'0 0.0
2016-Nov-25 05:33N 37°57' W 122°30'0 0.0
2016-Nov-25 04:32N 37°57' W 122°30'0 0.0
2016-Nov-25 03:33N 37°57' W 122°30'0 0.0
2016-Nov-25 02:33N 37°57' W 122°30'0 0.0
2016-Nov-25 01:33N 37°57' W 122°30'0 0.0
2016-Nov-25 00:33N 37°57' W 122°30'0 0.0
2016-Nov-24 23:33N 37°57' W 122°30'0 0.0
2016-Nov-24 22:33N 37°57' W 122°30'0 0.0
2016-Nov-24 21:28N 37°57' W 122°30'0 0.0
2016-Nov-24 20:33N 37°57' W 122°30'0 0.0
2016-Nov-24 19:16N 37°57' W 122°30'0 0.0
2016-Nov-24 18:16N 37°57' W 122°30'0 0.0
2016-Nov-24 17:28N 37°57' W 122°30'0 0.0
2016-Nov-24 16:33N 37°57' W 122°30'0 0.0
2016-Nov-24 15:33N 37°57' W 122°30'0 0.0
2016-Nov-24 14:32N 37°57' W 122°30'0 0.0
2016-Nov-24 13:33N 37°57' W 122°30'0 0.0
2016-Nov-24 12:33N 37°57' W 122°30'0 0.0
2016-Nov-24 11:33N 37°57' W 122°30'0 0.0
2016-Nov-24 10:33N 37°57' W 122°30'0 0.0
2016-Nov-24 09:33N 37°57' W 122°30'0 0.0
2016-Nov-24 08:33N 37°57' W 122°30'0 0.0
2016-Nov-24 07:33N 37°57' W 122°30'0 0.0
2016-Nov-24 06:33N 37°57' W 122°30'0 0.0
2016-Nov-24 05:33N 37°57' W 122°30'6 5.6
2016-Nov-24 04:34N 37°51' W 122°29'2 1.5
2016-Nov-24 03:34N 37°51' W 122°27'3 3.1
2016-Nov-24 02:33N 37°49' W 122°24'1 1.3
2016-Nov-24 01:34N 37°48' W 122°24'5 5.4
2016-Nov-24 00:33N 37°51' W 122°29'3 2.7
2016-Nov-23 23:33N 37°50' W 122°26'3 2.8
2016-Nov-23 22:33N 37°48' W 122°24'5 5.4
2016-Nov-23 21:33N 37°51' W 122°29'4 3.9
2016-Nov-23 20:33N 37°49' W 122°24'2 1.8
2016-Nov-23 19:33N 37°48' W 122°24'5 5.4
2016-Nov-23 18:33N 37°51' W 122°29'5 5.4
2016-Nov-23 17:33N 37°48' W 122°24'3 2.7
2016-Nov-23 16:33N 37°50' W 122°25'3 2.7
2016-Nov-23 15:33N 37°48' W 122°23'10 9.4
2016-Nov-23 14:33N 37°56' W 122°29'6 0.5
2016-Nov-23 03:34N 37°51' W 122°27'4 3.9
2016-Nov-23 02:34N 37°48' W 122°23'5 2.6
2016-Nov-23 00:33N 37°51' W 122°29'3 2.8
2016-Nov-22 23:34N 37°50' W 122°25'3 3.0
2016-Nov-22 22:33N 37°48' W 122°24'2 0.8
2016-Nov-22 20:33N 37°49' W 122°24'2 1.6
2016-Nov-22 19:33N 37°48' W 122°24'0 0.0
2016-Nov-22 17:33N 37°48' W 122°24'3 2.7
2016-Nov-22 16:33N 37°50' W 122°25'3 2.6
2016-Nov-22 15:33N 37°48' W 122°23'10 9.5
2016-Nov-22 14:33N 37°56' W 122°30'9 0.2
2016-Nov-21 02:33N 37°49' W 122°23'1 0.5
2016-Nov-21 00:33N 37°48' W 122°24'0 0.2
2016-Nov-20 22:34N 37°48' W 122°23'1 0.8
2016-Nov-20 21:33N 37°49' W 122°23'10 2.4
2016-Nov-20 17:33N 37°57' W 122°30'0 0.0
2016-Nov-20 04:20N 37°57' W 122°30'1012.5
2016-Nov-20 03:34N 37°49' W 122°23'  

Dump ship's entire track history